createdAt,value
2023-04-22T00:00:01.591Z,129.4
2023-04-22T00:05:02.493Z,148.1
2023-04-22T00:10:01.623Z,150.1
2023-04-22T00:15:01.783Z,112.8
2023-04-22T00:20:01.642Z,108.0
2023-04-22T00:25:06.727Z,99.4
2023-04-22T00:30:01.702Z,92.9
2023-04-22T00:35:01.791Z,100.0
2023-04-22T00:40:01.707Z,125.7
2023-04-22T00:45:06.745Z,156.6
2023-04-22T00:50:01.584Z,172.4
2023-04-22T00:55:01.794Z,198.2
2023-04-22T01:00:06.716Z,228.5
2023-04-22T01:05:01.831Z,236.4
2023-04-22T01:10:01.685Z,240.9
2023-04-22T01:15:05.416Z,256.3
2023-04-22T01:20:01.571Z,256.5
2023-04-22T01:25:01.637Z,253.2
2023-04-22T01:30:01.549Z,254.9
2023-04-22T01:35:01.763Z,254.2
2023-04-22T01:40:01.570Z,253.2
2023-04-22T01:50:01.579Z,250.1
2023-04-22T01:55:06.590Z,246.0
2023-04-22T02:00:01.517Z,238.8
2023-04-22T02:05:01.781Z,226.4
2023-04-22T02:10:01.566Z,202.7
2023-04-22T02:20:01.727Z,178.7
2023-04-22T02:25:01.602Z,159.6
2023-04-22T02:35:01.646Z,166.8
2023-04-22T02:40:01.562Z,151.4
2023-04-22T02:50:01.598Z,141.4
2023-04-22T03:00:01.787Z,112.9
2023-04-22T03:05:01.747Z,111.4
2023-04-22T03:15:01.712Z,120.9
2023-04-22T03:20:01.726Z,127.4
2023-04-22T03:25:06.803Z,141.7
2023-04-22T03:30:04.482Z,157.9
2023-04-22T03:45:01.782Z,162.2
2023-04-22T03:50:06.677Z,166.1
2023-04-22T03:55:01.629Z,162.3
2023-04-22T04:00:02.530Z,154.8
2023-04-22T04:10:06.511Z,167.4
2023-04-22T04:20:06.495Z,171.8
2023-04-22T04:25:01.660Z,172.6
2023-04-22T04:30:01.432Z,172.5
2023-04-22T04:35:02.576Z,174.0
2023-04-22T04:40:01.532Z,176.6
2023-04-22T05:05:01.866Z,199.5
2023-04-22T05:15:01.663Z,205.1
2023-04-22T05:25:01.610Z,181.0
2023-04-22T05:30:01.529Z,156.0
2023-04-22T05:35:04.989Z,127.9
2023-04-22T06:00:01.403Z,101.2
2023-04-22T06:05:07.543Z,90.2
2023-04-22T06:10:06.994Z,88.8
2023-04-22T06:15:01.529Z,91.1
2023-04-22T06:20:02.505Z,90.2
2023-04-22T06:25:01.761Z,101.3
2023-04-22T06:30:01.385Z,111.8
2023-04-22T06:35:01.458Z,116.2
2023-04-22T06:40:01.341Z,117.0
2023-04-22T06:50:01.392Z,96.1
2023-04-22T07:00:02.393Z,74.7
2023-04-22T07:05:07.536Z,64.0
2023-04-22T07:10:08.488Z,61.4
2023-04-22T07:15:01.413Z,58.8
2023-04-22T07:20:06.291Z,64.9
2023-04-22T07:30:01.483Z,91.2
2023-04-22T07:35:01.483Z,110.9
2023-04-22T07:40:01.221Z,131.4
2023-04-22T07:50:02.442Z,153.5
2023-04-22T07:55:01.390Z,155.2
2023-04-22T08:00:02.503Z,149.3
2023-04-22T08:05:01.648Z,144.8
2023-04-22T08:10:01.388Z,138.4
2023-04-22T08:15:01.420Z,129.6
2023-04-22T08:20:01.554Z,128.1
2023-04-22T08:25:01.862Z,124.0
2023-04-22T08:30:06.441Z,116.3
2023-04-22T08:35:05.906Z,124.7
2023-04-22T08:40:01.421Z,118.7
2023-04-22T08:45:02.734Z,114.0
2023-04-22T08:50:01.373Z,109.7
2023-04-22T09:00:01.420Z,88.3
2023-04-22T09:05:06.448Z,86.8
2023-04-22T09:15:01.544Z,77.2
2023-04-22T09:20:01.346Z,78.6
2023-04-22T09:25:01.463Z,79.6
2023-04-22T09:30:02.378Z,84.2
2023-04-22T09:35:01.421Z,86.2
2023-04-22T09:40:01.344Z,88.3
2023-04-22T10:10:01.401Z,103.6
2023-04-22T12:00:01.369Z,93.2
2023-04-22T12:05:01.541Z,86.7
2023-04-22T12:15:01.372Z,79.1
2023-04-22T12:20:01.275Z,75.2
2023-04-22T12:30:01.311Z,67.1
2023-04-22T12:35:01.401Z,65.6
2023-04-22T12:45:01.449Z,66.0
2023-04-22T13:00:01.258Z,64.4
2023-04-22T13:05:01.494Z,64.1
2023-04-22T13:10:01.195Z,64.1
2023-04-22T13:20:01.285Z,65.2
2023-04-22T13:25:01.479Z,65.5
2023-04-22T13:35:03.590Z,65.1
2023-04-22T13:40:01.303Z,66.4
2023-04-22T13:50:01.242Z,69.1
2023-04-22T13:55:06.378Z,71.7
2023-04-22T14:00:01.329Z,73.6
2023-04-22T14:05:01.348Z,74.0
2023-04-22T14:10:01.369Z,72.9
2023-04-22T14:15:01.390Z,72.5
2023-04-22T14:20:01.346Z,70.8
2023-04-22T14:30:01.304Z,68.7
2023-04-22T14:35:01.375Z,67.1
2023-04-22T14:40:01.782Z,69.6
2023-04-22T14:50:01.362Z,68.7
2023-04-22T14:55:23.949Z,69.4
2023-04-22T15:00:02.431Z,70.5
2023-04-22T15:10:02.376Z,65.9
2023-04-22T15:20:01.253Z,64.2
2023-04-22T15:35:02.406Z,64.6
2023-04-22T15:45:04.422Z,69.8
2023-04-22T16:05:01.377Z,72.2
2023-04-22T16:15:01.481Z,67.1
2023-04-22T16:20:01.544Z,67.3
2023-04-22T16:30:01.276Z,67.8
2023-04-22T16:35:06.470Z,70.7
2023-04-22T16:40:01.578Z,72.6
2023-04-22T16:55:06.599Z,75.6
2023-04-22T17:00:01.357Z,72.6
2023-04-22T17:10:01.435Z,66.2
2023-04-22T17:20:01.534Z,62.3
2023-04-22T18:25:01.404Z,95.1
2023-04-22T18:30:01.436Z,87.8
2023-04-22T18:35:01.536Z,82.4
2023-04-22T18:40:02.595Z,76.8
2023-04-22T18:55:01.555Z,80.4
2023-04-22T19:00:01.110Z,87.8
2023-04-22T19:05:01.297Z,95.3
2023-04-22T19:10:01.262Z,102.3
2023-04-22T19:20:01.268Z,113.6
2023-04-22T19:25:01.560Z,113.6
2023-04-22T19:30:01.353Z,113.5
2023-04-22T19:40:01.257Z,109.2
2023-04-22T19:45:01.395Z,108.4
2023-04-22T19:50:01.507Z,106.0
2023-04-22T19:55:01.508Z,99.9
2023-04-22T20:00:01.309Z,101.9
2023-04-22T20:05:01.493Z,91.2
2023-04-22T20:10:01.376Z,79.8
2023-04-22T20:15:06.469Z,71.0
2023-04-22T20:20:01.409Z,68.8
2023-04-22T20:40:01.318Z,58.6
2023-04-22T21:00:01.269Z,53.0
2023-04-22T21:05:01.866Z,52.8
2023-04-22T21:10:06.274Z,52.0
2023-04-22T21:15:01.360Z,49.6
2023-04-22T21:25:01.458Z,49.7
2023-04-22T21:35:02.441Z,49.0
2023-04-22T21:40:01.333Z,50.2
2023-04-22T21:50:06.375Z,53.0
2023-04-22T21:55:06.383Z,54.9
2023-04-22T22:00:01.315Z,55.8
2023-04-22T22:05:01.445Z,56.9
2023-04-22T22:25:01.496Z,60.1
2023-04-22T22:30:01.293Z,60.3
2023-04-22T22:40:01.209Z,60.3
2023-04-22T22:50:01.236Z,57.4
2023-04-22T22:55:01.266Z,55.4
2023-04-22T23:00:02.294Z,53.7
2023-04-22T23:05:06.899Z,54.0
2023-04-22T23:10:01.202Z,53.7
2023-04-22T23:15:01.322Z,53.8
2023-04-22T23:20:01.227Z,53.7
2023-04-22T23:35:01.332Z,52.4
2023-04-22T23:40:02.159Z,51.2
2023-04-22T23:50:01.293Z,51.4
2023-04-22T23:55:01.412Z,51.0
